Destinations Bodø Airport

Bodø Airport (ENBO / BOO)

Flights to Bodø Airport

Flight number From ETE Dispatch
SPY-3123 ENVA Trondheim Airport Værnes 01:15

Flights from Bodø Airport

Flight number To ETE Dispatch
SPY-3124 ENVA Trondheim Airport Værnes 01:30
About

Bodø Airport facts

Bodø Airport is located in Bodo at an elevation of 12.8 meters or 42 feet.

Currently, Speedy Airlines serves 2 flights to and from Bodø Airport.

Detailed airport info

Route map

Weather

Current weather

METAR

METAR

Metar data retrieved Sunday, 21 July 2024 at 19:55 UTC

ENBO 211920Z 14017KT CAVOK 24/12 Q1009 NOSIG
Wind Temperature
17 kt 24c